sensor_id;sensor_type;location;lat;lon;timestamp;pressure;altitude;pressure_sealevel;temperature;humidity
82148;BME280;71718;50.480;12.110;2024-01-27T00:02:10;99057.00;;;1.39;80.89
82148;BME280;71718;50.480;12.110;2024-01-27T00:04:36;99053.75;;;1.37;81.50
82148;BME280;71718;50.480;12.110;2024-01-27T00:07:02;99059.91;;;1.35;81.93
82148;BME280;71718;50.480;12.110;2024-01-27T00:09:29;99056.97;;;1.28;81.72
82148;BME280;71718;50.480;12.110;2024-01-27T00:11:55;99052.53;;;1.19;79.71
82148;BME280;71718;50.480;12.110;2024-01-27T00:14:22;99053.34;;;1.19;80.61
82148;BME280;71718;50.480;12.110;2024-01-27T00:16:48;99050.88;;;1.18;82.08
82148;BME280;71718;50.480;12.110;2024-01-27T00:19:15;99050.41;;;1.13;81.40
82148;BME280;71718;50.480;12.110;2024-01-27T00:21:41;99060.28;;;1.06;81.08
82148;BME280;71718;50.480;12.110;2024-01-27T00:24:08;99057.47;;;0.98;82.28
82148;BME280;71718;50.480;12.110;2024-01-27T00:26:34;99057.78;;;0.94;82.38
82148;BME280;71718;50.480;12.110;2024-01-27T00:29:01;99059.03;;;0.88;82.40
82148;BME280;71718;50.480;12.110;2024-01-27T00:31:27;99062.25;;;0.79;81.44
82148;BME280;71718;50.480;12.110;2024-01-27T00:33:53;99060.13;;;0.73;80.93
82148;BME280;71718;50.480;12.110;2024-01-27T00:36:20;99063.03;;;0.68;81.51
82148;BME280;71718;50.480;12.110;2024-01-27T00:38:46;99067.31;;;0.68;81.59
82148;BME280;71718;50.480;12.110;2024-01-27T00:41:17;99068.13;;;0.68;82.04
82148;BME280;71718;50.480;12.110;2024-01-27T00:43:43;99065.34;;;0.71;82.66
82148;BME280;71718;50.480;12.110;2024-01-27T00:46:10;99067.22;;;0.69;82.73
82148;BME280;71718;50.480;12.110;2024-01-27T00:48:36;99065.00;;;0.65;82.22
82148;BME280;71718;50.480;12.110;2024-01-27T00:51:03;99065.09;;;0.63;82.70
82148;BME280;71718;50.480;12.110;2024-01-27T00:53:29;99071.34;;;0.59;82.30
82148;BME280;71718;50.480;12.110;2024-01-27T00:55:55;99073.91;;;0.59;82.61
82148;BME280;71718;50.480;12.110;2024-01-27T00:58:22;99070.13;;;0.52;82.29
82148;BME280;71718;50.480;12.110;2024-01-27T01:00:48;99075.25;;;0.52;82.28
82148;BME280;71718;50.480;12.110;2024-01-27T01:03:15;99076.41;;;0.48;82.23
82148;BME280;71718;50.480;12.110;2024-01-27T01:05:42;99076.91;;;0.41;79.20
82148;BME280;71718;50.480;12.110;2024-01-27T01:08:08;99075.50;;;0.36;79.65
82148;BME280;71718;50.480;12.110;2024-01-27T01:10:35;99084.19;;;0.34;81.46
82148;BME280;71718;50.480;12.110;2024-01-27T01:13:01;99083.69;;;0.29;82.26
82148;BME280;71718;50.480;12.110;2024-01-27T01:15:28;99094.13;;;0.26;82.26
82148;BME280;71718;50.480;12.110;2024-01-27T01:17:54;99090.06;;;0.23;82.58
82148;BME280;71718;50.480;12.110;2024-01-27T01:20:21;99089.25;;;0.23;83.13
82148;BME280;71718;50.480;12.110;2024-01-27T01:22:47;99083.19;;;0.24;83.13
82148;BME280;71718;50.480;12.110;2024-01-27T01:25:13;99080.34;;;0.28;84.18
82148;BME280;71718;50.480;12.110;2024-01-27T01:27:40;99076.97;;;0.28;82.44
82148;BME280;71718;50.480;12.110;2024-01-27T01:30:07;99081.25;;;0.27;80.97
82148;BME280;71718;50.480;12.110;2024-01-27T01:32:34;99094.53;;;0.20;80.58
82148;BME280;71718;50.480;12.110;2024-01-27T01:35:01;99099.56;;;0.21;81.91
82148;BME280;71718;50.480;12.110;2024-01-27T01:37:27;99099.84;;;0.29;81.42
82148;BME280;71718;50.480;12.110;2024-01-27T01:39:54;99103.00;;;0.33;78.03
82148;BME280;71718;50.480;12.110;2024-01-27T01:42:20;99107.81;;;0.38;79.81
82148;BME280;71718;50.480;12.110;2024-01-27T01:44:46;99114.66;;;0.37;79.36
82148;BME280;71718;50.480;12.110;2024-01-27T01:47:13;99115.47;;;0.38;77.36
82148;BME280;71718;50.480;12.110;2024-01-27T01:49:40;99112.00;;;0.39;80.26
82148;BME280;71718;50.480;12.110;2024-01-27T01:52:07;99118.72;;;0.40;80.92
82148;BME280;71718;50.480;12.110;2024-01-27T01:54:33;99108.31;;;0.43;77.37
82148;BME280;71718;50.480;12.110;2024-01-27T01:57:00;99118.03;;;0.38;78.70
82148;BME280;71718;50.480;12.110;2024-01-27T01:59:27;99118.84;;;0.38;77.98
82148;BME280;71718;50.480;12.110;2024-01-27T02:01:53;99127.34;;;0.39;76.98
82148;BME280;71718;50.480;12.110;2024-01-27T02:04:20;99134.28;;;0.36;76.01
82148;BME280;71718;50.480;12.110;2024-01-27T02:06:46;99145.50;;;0.34;75.20
82148;BME280;71718;50.480;12.110;2024-01-27T02:09:12;99142.25;;;0.32;74.95
82148;BME280;71718;50.480;12.110;2024-01-27T02:11:39;99140.84;;;0.28;76.60
82148;BME280;71718;50.480;12.110;2024-01-27T02:14:06;99145.72;;;0.31;77.58
82148;BME280;71718;50.480;12.110;2024-01-27T02:16:32;99150.84;;;0.31;76.79
82148;BME280;71718;50.480;12.110;2024-01-27T02:18:59;99153.63;;;0.28;73.68
82148;BME280;71718;50.480;12.110;2024-01-27T02:21:25;99158.59;;;0.29;76.87
82148;BME280;71718;50.480;12.110;2024-01-27T02:23:52;99156.88;;;0.30;78.89
82148;BME280;71718;50.480;12.110;2024-01-27T02:26:18;99158.72;;;0.28;75.87
82148;BME280;71718;50.480;12.110;2024-01-27T02:28:45;99159.91;;;0.35;76.91
82148;BME280;71718;50.480;12.110;2024-01-27T02:31:11;99164.22;;;0.34;74.87
82148;BME280;71718;50.480;12.110;2024-01-27T02:33:37;99159.09;;;0.34;76.05
82148;BME280;71718;50.480;12.110;2024-01-27T02:36:04;99145.13;;;0.27;75.01
82148;BME280;71718;50.480;12.110;2024-01-27T02:38:31;99154.44;;;0.28;77.78
82148;BME280;71718;50.480;12.110;2024-01-27T02:40:57;99156.25;;;0.26;75.26
82148;BME280;71718;50.480;12.110;2024-01-27T02:43:24;99155.53;;;0.24;78.35
82148;BME280;71718;50.480;12.110;2024-01-27T02:45:50;99159.72;;;0.25;78.18
82148;BME280;71718;50.480;12.110;2024-01-27T02:48:16;99163.00;;;0.27;78.84
82148;BME280;71718;50.480;12.110;2024-01-27T02:50:43;99159.03;;;0.23;79.32
82148;BME280;71718;50.480;12.110;2024-01-27T02:53:09;99155.34;;;0.15;79.47
82148;BME280;71718;50.480;12.110;2024-01-27T02:55:36;99155.66;;;0.10;80.61
82148;BME280;71718;50.480;12.110;2024-01-27T02:58:02;99151.06;;;0.03;80.77
82148;BME280;71718;50.480;12.110;2024-01-27T03:00:29;99154.84;;;-0.03;81.63
82148;BME280;71718;50.480;12.110;2024-01-27T03:02:55;99162.91;;;-0.09;82.08
82148;BME280;71718;50.480;12.110;2024-01-27T03:05:21;99172.63;;;-0.14;82.17
82148;BME280;71718;50.480;12.110;2024-01-27T03:07:48;99165.34;;;-0.20;82.02
82148;BME280;71718;50.480;12.110;2024-01-27T03:10:14;99170.66;;;-0.23;81.95
82148;BME280;71718;50.480;12.110;2024-01-27T03:12:41;99168.31;;;-0.26;80.32
82148;BME280;71718;50.480;12.110;2024-01-27T03:15:07;99168.50;;;-0.29;80.20
82148;BME280;71718;50.480;12.110;2024-01-27T03:17:34;99171.38;;;-0.34;81.00
82148;BME280;71718;50.480;12.110;2024-01-27T03:20:00;99173.50;;;-0.40;80.67
82148;BME280;71718;50.480;12.110;2024-01-27T03:22:27;99166.97;;;-0.44;81.35
82148;BME280;71718;50.480;12.110;2024-01-27T03:24:53;99174.78;;;-0.48;81.56
82148;BME280;71718;50.480;12.110;2024-01-27T03:27:20;99172.34;;;-0.49;81.93
82148;BME280;71718;50.480;12.110;2024-01-27T03:29:46;99170.72;;;-0.50;80.84
82148;BME280;71718;50.480;12.110;2024-01-27T03:32:12;99179.38;;;-0.53;81.50
82148;BME280;71718;50.480;12.110;2024-01-27T03:34:45;99182.84;;;-0.54;81.46
82148;BME280;71718;50.480;12.110;2024-01-27T03:37:11;99189.66;;;-0.54;81.37
82148;BME280;71718;50.480;12.110;2024-01-27T03:39:37;99191.75;;;-0.46;80.81
82148;BME280;71718;50.480;12.110;2024-01-27T03:42:04;99191.16;;;-0.37;80.32
82148;BME280;71718;50.480;12.110;2024-01-27T03:44:30;99194.13;;;-0.31;77.67
82148;BME280;71718;50.480;12.110;2024-01-27T03:46:57;99192.09;;;-0.26;80.04
82148;BME280;71718;50.480;12.110;2024-01-27T03:49:23;99190.16;;;-0.22;77.07
82148;BME280;71718;50.480;12.110;2024-01-27T03:51:49;99195.06;;;-0.19;75.50
82148;BME280;71718;50.480;12.110;2024-01-27T03:54:16;99193.88;;;-0.14;74.37
82148;BME280;71718;50.480;12.110;2024-01-27T03:56:42;99197.13;;;-0.12;74.73
82148;BME280;71718;50.480;12.110;2024-01-27T03:59:09;99197.13;;;-0.12;77.68
82148;BME280;71718;50.480;12.110;2024-01-27T04:01:35;99193.66;;;-0.11;76.26
82148;BME280;71718;50.480;12.110;2024-01-27T04:04:02;99202.13;;;-0.10;76.08
82148;BME280;71718;50.480;12.110;2024-01-27T04:06:28;99197.13;;;-0.12;77.05
82148;BME280;71718;50.480;12.110;2024-01-27T04:08:55;99208.97;;;-0.11;76.09
82148;BME280;71718;50.480;12.110;2024-01-27T04:11:22;99217.44;;;-0.10;75.88
82148;BME280;71718;50.480;12.110;2024-01-27T04:13:49;99215.00;;;-0.12;75.51
82148;BME280;71718;50.480;12.110;2024-01-27T04:16:16;99223.78;;;-0.16;78.34
82148;BME280;71718;50.480;12.110;2024-01-27T04:18:42;99216.94;;;-0.15;76.67
82148;BME280;71718;50.480;12.110;2024-01-27T04:21:09;99223.78;;;-0.16;77.01
82148;BME280;71718;50.480;12.110;2024-01-27T04:23:35;99224.59;;;-0.15;78.01
82148;BME280;71718;50.480;12.110;2024-01-27T04:26:02;99223.97;;;-0.19;78.80
82148;BME280;71718;50.480;12.110;2024-01-27T04:28:28;99218.34;;;-0.24;79.36
82148;BME280;71718;50.480;12.110;2024-01-27T04:30:54;99222.63;;;-0.24;78.64
82148;BME280;71718;50.480;12.110;2024-01-27T04:33:21;99231.22;;;-0.25;76.04
82148;BME280;71718;50.480;12.110;2024-01-27T04:35:47;99232.22;;;-0.28;78.49
82148;BME280;71718;50.480;12.110;2024-01-27T04:38:14;99234.25;;;-0.33;80.12
82148;BME280;71718;50.480;12.110;2024-01-27T04:40:40;99248.13;;;-0.37;80.48
82148;BME280;71718;50.480;12.110;2024-01-27T04:43:06;99243.84;;;-0.36;80.27
82148;BME280;71718;50.480;12.110;2024-01-27T04:45:33;99251.78;;;-0.41;78.05
82148;BME280;71718;50.480;12.110;2024-01-27T04:48:00;99245.34;;;-0.46;77.84
82148;BME280;71718;50.480;12.110;2024-01-27T04:50:26;99245.25;;;-0.45;77.61
82148;BME280;71718;50.480;12.110;2024-01-27T04:52:53;99243.78;;;-0.49;77.20
82148;BME280;71718;50.480;12.110;2024-01-27T04:55:19;99250.00;;;-0.53;78.82
82148;BME280;71718;50.480;12.110;2024-01-27T04:57:45;99252.75;;;-0.56;79.70
82148;BME280;71718;50.480;12.110;2024-01-27T05:00:12;99251.31;;;-0.60;79.07
82148;BME280;71718;50.480;12.110;2024-01-27T05:02:40;99251.69;;;-0.66;78.68
82148;BME280;71718;50.480;12.110;2024-01-27T05:05:07;99258.00;;;-0.72;79.54
82148;BME280;71718;50.480;12.110;2024-01-27T05:07:34;99258.28;;;-0.76;79.96
82148;BME280;71718;50.480;12.110;2024-01-27T05:10:00;99263.38;;;-0.76;80.52
82148;BME280;71718;50.480;12.110;2024-01-27T05:12:27;99265.41;;;-0.81;79.35
82148;BME280;71718;50.480;12.110;2024-01-27T05:14:53;99263.22;;;-0.87;77.70
82148;BME280;71718;50.480;12.110;2024-01-27T05:17:20;99264.03;;;-0.87;80.32
82148;BME280;71718;50.480;12.110;2024-01-27T05:19:46;99267.78;;;-0.93;80.83
82148;BME280;71718;50.480;12.110;2024-01-27T05:22:12;99260.22;;;-0.94;81.51
82148;BME280;71718;50.480;12.110;2024-01-27T05:24:39;99259.31;;;-0.93;81.81
82148;BME280;71718;50.480;12.110;2024-01-27T05:27:05;99266.06;;;-0.92;82.16
82148;BME280;71718;50.480;12.110;2024-01-27T05:29:32;99257.75;;;-0.96;81.29
82148;BME280;71718;50.480;12.110;2024-01-27T05:31:58;99247.56;;;-0.96;82.03
82148;BME280;71718;50.480;12.110;2024-01-27T05:34:24;99246.84;;;-0.98;81.99
82148;BME280;71718;50.480;12.110;2024-01-27T05:36:51;99251.88;;;-0.96;81.37
82148;BME280;71718;50.480;12.110;2024-01-27T05:39:17;99253.59;;;-0.97;81.94
82148;BME280;71718;50.480;12.110;2024-01-27T05:41:44;99264.50;;;-0.95;78.43
82148;BME280;71718;50.480;12.110;2024-01-27T05:44:10;99263.88;;;-0.98;79.85
82148;BME280;71718;50.480;12.110;2024-01-27T05:46:37;99265.81;;;-1.02;77.98
82148;BME280;71718;50.480;12.110;2024-01-27T05:49:03;99268.53;;;-1.05;79.41
82148;BME280;71718;50.480;12.110;2024-01-27T05:51:30;99269.72;;;-1.10;77.55
82148;BME280;71718;50.480;12.110;2024-01-27T05:53:57;99263.25;;;-1.16;78.43
82148;BME280;71718;50.480;12.110;2024-01-27T05:56:23;99272.81;;;-1.19;79.92
82148;BME280;71718;50.480;12.110;2024-01-27T05:58:50;99268.91;;;-1.25;80.27
82148;BME280;71718;50.480;12.110;2024-01-27T06:01:19;99270.75;;;-1.27;80.74
82148;BME280;71718;50.480;12.110;2024-01-27T06:03:46;99269.91;;;-1.27;81.04
82148;BME280;71718;50.480;12.110;2024-01-27T06:06:13;99264.38;;;-1.34;80.16
82148;BME280;71718;50.480;12.110;2024-01-27T06:08:40;99260.72;;;-1.44;79.27
82148;BME280;71718;50.480;12.110;2024-01-27T06:11:07;99259.28;;;-1.48;80.64
82148;BME280;71718;50.480;12.110;2024-01-27T06:13:35;99266.38;;;-1.53;80.45
82148;BME280;71718;50.480;12.110;2024-01-27T06:16:06;99276.63;;;-1.55;80.89
82148;BME280;71718;50.480;12.110;2024-01-27T06:18:32;99272.91;;;-1.63;80.20
82148;BME280;71718;50.480;12.110;2024-01-27T06:20:59;99285.66;;;-1.63;79.92
82148;BME280;71718;50.480;12.110;2024-01-27T06:23:26;99274.72;;;-1.65;81.22
82148;BME280;71718;50.480;12.110;2024-01-27T06:25:52;99286.00;;;-1.69;81.20
82148;BME280;71718;50.480;12.110;2024-01-27T06:28:18;99284.63;;;-1.75;80.95
82148;BME280;71718;50.480;12.110;2024-01-27T06:30:45;99280.69;;;-1.81;81.47
82148;BME280;71718;50.480;12.110;2024-01-27T06:33:11;99291.03;;;-1.84;81.24
82148;BME280;71718;50.480;12.110;2024-01-27T06:35:38;99292.03;;;-1.86;81.56
82148;BME280;71718;50.480;12.110;2024-01-27T06:38:04;99294.59;;;-1.86;81.54
82148;BME280;71718;50.480;12.110;2024-01-27T06:40:30;99300.66;;;-1.89;81.66
82148;BME280;71718;50.480;12.110;2024-01-27T06:42:57;99297.41;;;-1.91;81.62
82148;BME280;71718;50.480;12.110;2024-01-27T06:45:26;99306.19;;;-1.96;81.09
82148;BME280;71718;50.480;12.110;2024-01-27T06:47:53;99313.91;;;-1.98;81.34
82148;BME280;71718;50.480;12.110;2024-01-27T06:50:20;99314.25;;;-2.04;80.93
82148;BME280;71718;50.480;12.110;2024-01-27T06:52:46;99320.28;;;-2.05;81.36
82148;BME280;71718;50.480;12.110;2024-01-27T06:55:13;99318.28;;;-2.00;82.07
82148;BME280;71718;50.480;12.110;2024-01-27T06:57:39;99327.81;;;-2.03;81.71
82148;BME280;71718;50.480;12.110;2024-01-27T07:00:06;99328.88;;;-2.07;81.61
82148;BME280;71718;50.480;12.110;2024-01-27T07:02:33;99325.38;;;-2.05;82.04
82148;BME280;71718;50.480;12.110;2024-01-27T07:04:59;99319.53;;;-2.07;82.67
82148;BME280;71718;50.480;12.110;2024-01-27T07:07:27;99313.44;;;-2.04;82.63
82148;BME280;71718;50.480;12.110;2024-01-27T07:09:57;99326.91;;;-2.02;82.51
82148;BME280;71718;50.480;12.110;2024-01-27T07:12:24;99328.56;;;-2.01;82.58
82148;BME280;71718;50.480;12.110;2024-01-27T07:14:51;99328.56;;;-2.01;81.31
82148;BME280;71718;50.480;12.110;2024-01-27T07:17:22;99336.13;;;-2.00;81.89
82148;BME280;71718;50.480;12.110;2024-01-27T07:19:49;99335.94;;;-1.97;81.71
82148;BME280;71718;50.480;12.110;2024-01-27T07:22:15;99330.84;;;-1.97;81.68
82148;BME280;71718;50.480;12.110;2024-01-27T07:24:42;99317.38;;;-1.99;80.80
82148;BME280;71718;50.480;12.110;2024-01-27T07:27:11;99324.19;;;-1.99;80.62
82148;BME280;71718;50.480;12.110;2024-01-27T07:29:38;99317.47;;;-2.00;81.44
82148;BME280;71718;50.480;12.110;2024-01-27T07:32:05;99316.53;;;-1.99;81.88
82148;BME280;71718;50.480;12.110;2024-01-27T07:34:31;99317.81;;;-2.06;76.39
82148;BME280;71718;50.480;12.110;2024-01-27T07:36:57;99324.28;;;-2.01;80.43
82148;BME280;71718;50.480;12.110;2024-01-27T07:39:24;99326.50;;;-1.95;81.24
82148;BME280;71718;50.480;12.110;2024-01-27T07:41:50;99317.94;;;-1.94;80.20
82148;BME280;71718;50.480;12.110;2024-01-27T07:44:18;99318.41;;;-1.87;80.77
82148;BME280;71718;50.480;12.110;2024-01-27T07:46:44;99315.44;;;-1.80;80.24
82148;BME280;71718;50.480;12.110;2024-01-27T07:49:10;99323.72;;;-1.76;78.59
82148;BME280;71718;50.480;12.110;2024-01-27T07:51:37;99335.09;;;-1.67;79.88
82148;BME280;71718;50.480;12.110;2024-01-27T07:54:03;99329.59;;;-1.60;78.81
82148;BME280;71718;50.480;12.110;2024-01-27T07:56:30;99329.78;;;-1.49;79.69
82148;BME280;71718;50.480;12.110;2024-01-27T07:58:56;99338.53;;;-1.39;79.93
82148;BME280;71718;50.480;12.110;2024-01-27T08:01:23;99338.00;;;-1.29;79.71
82148;BME280;71718;50.480;12.110;2024-01-27T08:03:49;99350.31;;;-1.22;79.17
82148;BME280;71718;50.480;12.110;2024-01-27T08:06:18;99344.81;;;-1.16;78.07
82148;BME280;71718;50.480;12.110;2024-01-27T08:08:48;99360.31;;;-1.19;76.91
82148;BME280;71718;50.480;12.110;2024-01-27T08:11:15;99357.13;;;-1.22;77.09
82148;BME280;71718;50.480;12.110;2024-01-27T08:13:42;99357.69;;;-1.17;77.81
82148;BME280;71718;50.480;12.110;2024-01-27T08:16:08;99358.31;;;-1.14;78.33
82148;BME280;71718;50.480;12.110;2024-01-27T08:18:35;99373.25;;;-1.08;78.33
82148;BME280;71718;50.480;12.110;2024-01-27T08:21:03;99369.53;;;-1.02;77.98
82148;BME280;71718;50.480;12.110;2024-01-27T08:23:30;99377.59;;;-0.96;77.71
82148;BME280;71718;50.480;12.110;2024-01-27T08:25:56;99373.78;;;-0.88;77.70
82148;BME280;71718;50.480;12.110;2024-01-27T08:28:22;99377.72;;;-0.83;77.02
82148;BME280;71718;50.480;12.110;2024-01-27T08:30:49;99385.28;;;-0.81;76.92
82148;BME280;71718;50.480;12.110;2024-01-27T08:33:15;99387.84;;;-0.81;77.02
82148;BME280;71718;50.480;12.110;2024-01-27T08:35:42;99384.47;;;-0.82;77.10
82148;BME280;71718;50.480;12.110;2024-01-27T08:38:09;99391.75;;;-0.76;76.97
82148;BME280;71718;50.480;12.110;2024-01-27T08:40:35;99394.72;;;-0.69;76.75
82148;BME280;71718;50.480;12.110;2024-01-27T08:43:02;99402.22;;;-0.66;75.93
82148;BME280;71718;50.480;12.110;2024-01-27T08:45:28;99394.56;;;-0.66;76.08
82148;BME280;71718;50.480;12.110;2024-01-27T08:47:55;99411.13;;;-0.59;75.92
82148;BME280;71718;50.480;12.110;2024-01-27T08:50:21;99412.31;;;-0.51;75.55
82148;BME280;71718;50.480;12.110;2024-01-27T08:52:47;99411.97;;;-0.44;75.09
82148;BME280;71718;50.480;12.110;2024-01-27T08:55:14;99409.28;;;-0.43;74.84
82148;BME280;71718;50.480;12.110;2024-01-27T08:57:40;99414.13;;;-0.38;74.72
82148;BME280;71718;50.480;12.110;2024-01-27T09:00:07;99416.41;;;-0.34;74.64
82148;BME280;71718;50.480;12.110;2024-01-27T09:02:34;99419.66;;;-0.32;74.62
82148;BME280;71718;50.480;12.110;2024-01-27T09:05:00;99422.75;;;-0.27;73.89
82148;BME280;71718;50.480;12.110;2024-01-27T09:07:28;99414.13;;;-0.24;74.05
82148;BME280;71718;50.480;12.110;2024-01-27T09:09:55;99410.97;;;-0.15;73.67
82148;BME280;71718;50.480;12.110;2024-01-27T09:12:21;99413.78;;;-0.06;73.43
82148;BME280;71718;50.480;12.110;2024-01-27T09:14:47;99419.50;;;-0.02;73.05
82148;BME280;71718;50.480;12.110;2024-01-27T09:17:14;99423.00;;;-0.03;73.07
82148;BME280;71718;50.480;12.110;2024-01-27T09:19:40;99428.16;;;0.10;73.39
82148;BME280;71718;50.480;12.110;2024-01-27T09:22:07;99429.13;;;0.21;72.64
82148;BME280;71718;50.480;12.110;2024-01-27T09:24:33;99435.06;;;0.22;71.91
82148;BME280;71718;50.480;12.110;2024-01-27T09:27:00;99440.88;;;0.24;72.29
82148;BME280;71718;50.480;12.110;2024-01-27T09:29:26;99442.34;;;0.28;71.51
82148;BME280;71718;50.480;12.110;2024-01-27T09:31:52;99442.03;;;0.32;71.92
82148;BME280;71718;50.480;12.110;2024-01-27T09:34:19;99437.47;;;0.38;70.94
82148;BME280;71718;50.480;12.110;2024-01-27T09:36:45;99437.38;;;0.52;71.13
82148;BME280;71718;50.480;12.110;2024-01-27T09:39:12;99443.84;;;0.57;70.97
82148;BME280;71718;50.480;12.110;2024-01-27T09:41:39;99449.06;;;0.56;71.12
82148;BME280;71718;50.480;12.110;2024-01-27T09:44:06;99445.19;;;0.75;70.45
82148;BME280;71718;50.480;12.110;2024-01-27T09:46:32;99455.94;;;0.80;70.27
82148;BME280;71718;50.480;12.110;2024-01-27T09:48:59;99451.69;;;0.94;69.83
82148;BME280;71718;50.480;12.110;2024-01-27T09:51:26;99446.38;;;1.09;69.47
82148;BME280;71718;50.480;12.110;2024-01-27T09:53:53;99440.56;;;1.20;69.00
82148;BME280;71718;50.480;12.110;2024-01-27T09:56:20;99443.09;;;1.20;68.71
82148;BME280;71718;50.480;12.110;2024-01-27T09:58:47;99451.69;;;1.19;68.50
82148;BME280;71718;50.480;12.110;2024-01-27T10:01:14;99459.16;;;1.35;67.79
82148;BME280;71718;50.480;12.110;2024-01-27T10:03:42;99451.69;;;1.44;67.72
82148;BME280;71718;50.480;12.110;2024-01-27T10:06:10;99462.75;;;1.45;67.72
82148;BME280;71718;50.480;12.110;2024-01-27T10:08:37;99461.00;;;1.45;67.48
82148;BME280;71718;50.480;12.110;2024-01-27T10:11:08;99460.06;;;1.59;66.95
82148;BME280;71718;50.480;12.110;2024-01-27T10:13:35;99452.28;;;1.73;67.12
82148;BME280;71718;50.480;12.110;2024-01-27T10:16:07;99451.84;;;1.79;66.34
82148;BME280;71718;50.480;12.110;2024-01-27T10:18:34;99450.97;;;1.68;66.41
82148;BME280;71718;50.480;12.110;2024-01-27T10:21:14;99441.72;;;1.78;66.39
82148;BME280;71718;50.480;12.110;2024-01-27T10:23:41;99441.66;;;1.90;66.51
82148;BME280;71718;50.480;12.110;2024-01-27T10:26:11;99443.97;;;1.70;66.74
82148;BME280;71718;50.480;12.110;2024-01-27T10:28:38;99445.00;;;1.67;67.22
82148;BME280;71718;50.480;12.110;2024-01-27T10:31:11;99446.34;;;1.73;67.19
82148;BME280;71718;50.480;12.110;2024-01-27T10:33:38;99441.47;;;1.93;67.10
82148;BME280;71718;50.480;12.110;2024-01-27T10:36:06;99442.13;;;2.08;65.96
82148;BME280;71718;50.480;12.110;2024-01-27T10:38:37;99439.69;;;2.30;65.90
82148;BME280;71718;50.480;12.110;2024-01-27T10:41:10;99447.03;;;2.11;66.95
82148;BME280;71718;50.480;12.110;2024-01-27T10:43:38;99441.09;;;2.34;64.94
82148;BME280;71718;50.480;12.110;2024-01-27T10:46:06;99450.38;;;2.24;66.04
82148;BME280;71718;50.480;12.110;2024-01-27T10:48:36;99446.91;;;2.36;65.45
82148;BME280;71718;50.480;12.110;2024-01-27T10:51:07;99447.97;;;2.34;64.24
82148;BME280;71718;50.480;12.110;2024-01-27T10:53:35;99448.06;;;2.32;64.74
82148;BME280;71718;50.480;12.110;2024-01-27T10:56:03;99443.88;;;2.31;64.88
82148;BME280;71718;50.480;12.110;2024-01-27T10:58:30;99449.63;;;2.35;64.39
82148;BME280;71718;50.480;12.110;2024-01-27T11:00:57;99443.94;;;2.42;64.35
82148;BME280;71718;50.480;12.110;2024-01-27T11:03:25;99440.09;;;2.48;64.25
82148;BME280;71718;50.480;12.110;2024-01-27T11:05:54;99433.00;;;2.51;62.97
82148;BME280;71718;50.480;12.110;2024-01-27T11:08:23;99444.22;;;2.50;62.98
82148;BME280;71718;50.480;12.110;2024-01-27T11:10:50;99447.94;;;2.58;63.24
82148;BME280;71718;50.480;12.110;2024-01-27T11:13:17;99432.41;;;2.48;64.12
82148;BME280;71718;50.480;12.110;2024-01-27T11:15:53;99451.84;;;2.74;63.08
82148;BME280;71718;50.480;12.110;2024-01-27T11:18:20;99447.09;;;2.81;62.47
82148;BME280;71718;50.480;12.110;2024-01-27T11:20:47;99447.59;;;2.86;62.95
82148;BME280;71718;50.480;12.110;2024-01-27T11:23:14;99455.06;;;3.00;61.51
82148;BME280;71718;50.480;12.110;2024-01-27T11:25:41;99464.44;;;3.12;61.72
82148;BME280;71718;50.480;12.110;2024-01-27T11:28:15;99465.97;;;3.26;61.19
82148;BME280;71718;50.480;12.110;2024-01-27T11:30:47;99470.63;;;3.21;60.24
82148;BME280;71718;50.480;12.110;2024-01-27T11:33:14;99460.00;;;3.14;60.99
82148;BME280;71718;50.480;12.110;2024-01-27T11:35:41;99468.16;;;2.97;62.44
82148;BME280;71718;50.480;12.110;2024-01-27T11:38:07;99460.56;;;2.96;60.50
82148;BME280;71718;50.480;12.110;2024-01-27T11:40:44;99466.16;;;3.01;61.15
82148;BME280;71718;50.480;12.110;2024-01-27T11:43:11;99460.25;;;3.11;60.61
82148;BME280;71718;50.480;12.110;2024-01-27T11:45:38;99461.09;;;3.23;60.27
82148;BME280;71718;50.480;12.110;2024-01-27T11:48:04;99455.59;;;3.27;62.03
82148;BME280;71718;50.480;12.110;2024-01-27T11:50:31;99466.56;;;3.41;60.37
82148;BME280;71718;50.480;12.110;2024-01-27T11:52:58;99456.75;;;3.34;60.72
82148;BME280;71718;50.480;12.110;2024-01-27T11:55:24;99454.69;;;3.28;60.16
82148;BME280;71718;50.480;12.110;2024-01-27T11:57:50;99458.66;;;3.44;59.81
82148;BME280;71718;50.480;12.110;2024-01-27T12:00:17;99465.06;;;3.49;61.48
82148;BME280;71718;50.480;12.110;2024-01-27T12:02:44;99464.38;;;3.58;60.16
82148;BME280;71718;50.480;12.110;2024-01-27T12:05:10;99467.16;;;3.66;60.33
82148;BME280;71718;50.480;12.110;2024-01-27T12:07:37;99462.63;;;3.48;58.77
82148;BME280;71718;50.480;12.110;2024-01-27T12:10:04;99470.56;;;3.67;58.45
82148;BME280;71718;50.480;12.110;2024-01-27T12:12:30;99469.66;;;3.79;58.07
82148;BME280;71718;50.480;12.110;2024-01-27T12:14:57;99463.75;;;4.10;61.91
82148;BME280;71718;50.480;12.110;2024-01-27T12:17:24;99464.41;;;4.24;60.14
82148;BME280;71718;50.480;12.110;2024-01-27T12:19:52;99460.25;;;4.11;60.62
82148;BME280;71718;50.480;12.110;2024-01-27T12:22:26;99472.88;;;4.03;61.45
82148;BME280;71718;50.480;12.110;2024-01-27T12:24:59;99466.91;;;4.03;61.13
82148;BME280;71718;50.480;12.110;2024-01-27T12:27:33;99470.78;;;3.97;61.27
82148;BME280;71718;50.480;12.110;2024-01-27T12:30:00;99472.69;;;3.95;61.15
82148;BME280;71718;50.480;12.110;2024-01-27T12:32:27;99464.81;;;3.97;61.26
82148;BME280;71718;50.480;12.110;2024-01-27T12:34:54;99468.47;;;3.94;61.41
82148;BME280;71718;50.480;12.110;2024-01-27T12:37:21;99462.63;;;3.81;61.89
82148;BME280;71718;50.480;12.110;2024-01-27T12:39:48;99469.19;;;3.74;61.96
82148;BME280;71718;50.480;12.110;2024-01-27T12:42:14;99467.09;;;3.68;62.01
82148;BME280;71718;50.480;12.110;2024-01-27T12:44:41;99470.47;;;3.68;61.93
82148;BME280;71718;50.480;12.110;2024-01-27T12:47:07;99471.97;;;3.71;62.43
82148;BME280;71718;50.480;12.110;2024-01-27T12:49:34;99465.34;;;3.68;62.26
82148;BME280;71718;50.480;12.110;2024-01-27T12:52:01;99468.22;;;3.64;62.76
82148;BME280;71718;50.480;12.110;2024-01-27T12:54:28;99459.59;;;3.65;62.45